sensor_id;sensor_type;location;lat;lon;timestamp;temperature;humidity
20915;DHT22;10617;52.032;5.298;2023-04-29T00:00:43;10.60;99.90
20915;DHT22;10617;52.032;5.298;2023-04-29T00:04:45;10.50;99.90
20915;DHT22;10617;52.032;5.298;2023-04-29T00:08:46;10.50;99.90
20915;DHT22;10617;52.032;5.298;2023-04-29T00:12:48;10.50;99.90
20915;DHT22;10617;52.032;5.298;2023-04-29T00:16:51;10.40;99.90
20915;DHT22;10617;52.032;5.298;2023-04-29T00:20:53;10.50;99.90
20915;DHT22;10617;52.032;5.298;2023-04-29T00:24:55;10.40;99.90
20915;DHT22;10617;52.032;5.298;2023-04-29T00:28:57;10.40;99.90
20915;DHT22;10617;52.032;5.298;2023-04-29T00:32:58;10.40;99.90
20915;DHT22;10617;52.032;5.298;2023-04-29T00:37:00;10.40;99.90
20915;DHT22;10617;52.032;5.298;2023-04-29T00:41:02;10.40;99.90
20915;DHT22;10617;52.032;5.298;2023-04-29T00:45:04;10.40;99.90
20915;DHT22;10617;52.032;5.298;2023-04-29T00:49:08;10.40;99.90
20915;DHT22;10617;52.032;5.298;2023-04-29T00:53:11;10.40;99.90
20915;DHT22;10617;52.032;5.298;2023-04-29T00:57:15;10.40;99.90
20915;DHT22;10617;52.032;5.298;2023-04-29T01:01:18;10.40;99.90
20915;DHT22;10617;52.032;5.298;2023-04-29T01:05:19;10.40;99.90
20915;DHT22;10617;52.032;5.298;2023-04-29T01:17:50;10.30;99.90
20915;DHT22;10617;52.032;5.298;2023-04-29T01:21:56;10.30;99.90
20915;DHT22;10617;52.032;5.298;2023-04-29T01:25:57;10.30;99.90
20915;DHT22;10617;52.032;5.298;2023-04-29T01:34:31;10.30;99.90
20915;DHT22;10617;52.032;5.298;2023-04-29T01:43:01;10.30;99.90
20915;DHT22;10617;52.032;5.298;2023-04-29T01:47:03;10.30;99.90
20915;DHT22;10617;52.032;5.298;2023-04-29T01:51:05;10.30;99.90
20915;DHT22;10617;52.032;5.298;2023-04-29T01:55:07;10.20;99.90
20915;DHT22;10617;52.032;5.298;2023-04-29T01:59:09;10.20;99.90
20915;DHT22;10617;52.032;5.298;2023-04-29T02:03:11;10.20;99.90
20915;DHT22;10617;52.032;5.298;2023-04-29T02:07:13;10.30;99.90
20915;DHT22;10617;52.032;5.298;2023-04-29T02:11:14;10.20;99.90
20915;DHT22;10617;52.032;5.298;2023-04-29T02:15:16;10.20;99.90
20915;DHT22;10617;52.032;5.298;2023-04-29T02:19:18;10.20;99.90
20915;DHT22;10617;52.032;5.298;2023-04-29T02:23:19;10.30;99.90
20915;DHT22;10617;52.032;5.298;2023-04-29T02:27:21;10.30;99.90
20915;DHT22;10617;52.032;5.298;2023-04-29T02:31:23;10.30;99.90
20915;DHT22;10617;52.032;5.298;2023-04-29T02:35:24;10.30;99.90
20915;DHT22;10617;52.032;5.298;2023-04-29T02:39:26;10.20;99.90
20915;DHT22;10617;52.032;5.298;2023-04-29T02:43:28;10.20;99.90
20915;DHT22;10617;52.032;5.298;2023-04-29T02:47:31;10.30;99.90
20915;DHT22;10617;52.032;5.298;2023-04-29T02:51:33;10.30;99.90
20915;DHT22;10617;52.032;5.298;2023-04-29T02:55:35;10.30;99.90
20915;DHT22;10617;52.032;5.298;2023-04-29T02:59:36;10.30;99.90
20915;DHT22;10617;52.032;5.298;2023-04-29T03:03:38;10.30;99.90
20915;DHT22;10617;52.032;5.298;2023-04-29T03:07:40;10.30;99.90
20915;DHT22;10617;52.032;5.298;2023-04-29T03:11:42;10.30;99.90
20915;DHT22;10617;52.032;5.298;2023-04-29T03:15:44;10.30;99.90
20915;DHT22;10617;52.032;5.298;2023-04-29T03:19:45;10.30;99.90
20915;DHT22;10617;52.032;5.298;2023-04-29T03:23:47;10.30;99.90
20915;DHT22;10617;52.032;5.298;2023-04-29T03:27:48;10.30;99.90
20915;DHT22;10617;52.032;5.298;2023-04-29T03:31:50;10.30;99.90
20915;DHT22;10617;52.032;5.298;2023-04-29T03:35:52;10.30;99.90
20915;DHT22;10617;52.032;5.298;2023-04-29T03:39:54;10.30;99.90
20915;DHT22;10617;52.032;5.298;2023-04-29T03:43:55;10.30;99.90
20915;DHT22;10617;52.032;5.298;2023-04-29T03:48:01;10.20;99.90
20915;DHT22;10617;52.032;5.298;2023-04-29T03:52:04;10.20;99.90
20915;DHT22;10617;52.032;5.298;2023-04-29T03:56:05;10.20;99.90
20915;DHT22;10617;52.032;5.298;2023-04-29T04:00:07;10.20;99.90
20915;DHT22;10617;52.032;5.298;2023-04-29T04:04:09;10.30;99.90
20915;DHT22;10617;52.032;5.298;2023-04-29T04:08:11;10.20;99.90
20915;DHT22;10617;52.032;5.298;2023-04-29T04:12:12;10.30;99.90
20915;DHT22;10617;52.032;5.298;2023-04-29T04:16:14;10.30;99.90
20915;DHT22;10617;52.032;5.298;2023-04-29T04:20:15;10.30;99.90
20915;DHT22;10617;52.032;5.298;2023-04-29T04:24:17;10.30;99.90
20915;DHT22;10617;52.032;5.298;2023-04-29T04:28:19;10.30;99.90
20915;DHT22;10617;52.032;5.298;2023-04-29T04:32:21;10.30;99.90
20915;DHT22;10617;52.032;5.298;2023-04-29T04:36:24;10.30;99.90
20915;DHT22;10617;52.032;5.298;2023-04-29T04:40:26;10.30;99.90
20915;DHT22;10617;52.032;5.298;2023-04-29T04:44:28;10.30;99.90
20915;DHT22;10617;52.032;5.298;2023-04-29T04:48:30;10.30;99.90
20915;DHT22;10617;52.032;5.298;2023-04-29T04:52:32;10.30;99.90
20915;DHT22;10617;52.032;5.298;2023-04-29T04:56:34;10.30;99.90
20915;DHT22;10617;52.032;5.298;2023-04-29T05:00:42;10.30;99.90
20915;DHT22;10617;52.032;5.298;2023-04-29T05:04:43;10.40;99.90
20915;DHT22;10617;52.032;5.298;2023-04-29T05:08:46;10.40;99.90
20915;DHT22;10617;52.032;5.298;2023-04-29T05:12:47;10.40;99.90
20915;DHT22;10617;52.032;5.298;2023-04-29T05:16:49;10.50;99.90
20915;DHT22;10617;52.032;5.298;2023-04-29T05:20:52;10.50;99.90
20915;DHT22;10617;52.032;5.298;2023-04-29T05:24:53;10.50;99.90
20915;DHT22;10617;52.032;5.298;2023-04-29T05:29:00;10.60;99.90
20915;DHT22;10617;52.032;5.298;2023-04-29T05:33:02;10.60;99.90
20915;DHT22;10617;52.032;5.298;2023-04-29T05:37:04;10.70;99.90
20915;DHT22;10617;52.032;5.298;2023-04-29T05:41:05;10.80;99.90
20915;DHT22;10617;52.032;5.298;2023-04-29T05:45:07;10.80;99.90
20915;DHT22;10617;52.032;5.298;2023-04-29T05:49:09;10.90;99.90
20915;DHT22;10617;52.032;5.298;2023-04-29T05:53:10;10.90;99.90
20915;DHT22;10617;52.032;5.298;2023-04-29T05:57:15;11.00;99.90
20915;DHT22;10617;52.032;5.298;2023-04-29T06:01:17;11.10;99.90
20915;DHT22;10617;52.032;5.298;2023-04-29T06:05:18;11.10;99.90
20915;DHT22;10617;52.032;5.298;2023-04-29T06:09:20;11.20;99.90
20915;DHT22;10617;52.032;5.298;2023-04-29T06:13:28;11.20;99.90
20915;DHT22;10617;52.032;5.298;2023-04-29T06:17:31;11.30;99.90
20915;DHT22;10617;52.032;5.298;2023-04-29T06:21:33;11.30;99.90
20915;DHT22;10617;52.032;5.298;2023-04-29T06:25:34;11.30;99.90
20915;DHT22;10617;52.032;5.298;2023-04-29T06:29:36;11.40;99.90
20915;DHT22;10617;52.032;5.298;2023-04-29T06:33:38;11.60;99.90
20915;DHT22;10617;52.032;5.298;2023-04-29T06:37:39;11.70;99.90
20915;DHT22;10617;52.032;5.298;2023-04-29T06:41:41;11.80;99.90
20915;DHT22;10617;52.032;5.298;2023-04-29T06:45:46;11.80;99.90
20915;DHT22;10617;52.032;5.298;2023-04-29T06:49:48;11.80;99.90
20915;DHT22;10617;52.032;5.298;2023-04-29T06:53:49;11.70;99.90
20915;DHT22;10617;52.032;5.298;2023-04-29T06:57:51;11.80;99.90
20915;DHT22;10617;52.032;5.298;2023-04-29T07:01:53;12.10;99.90
20915;DHT22;10617;52.032;5.298;2023-04-29T07:05:54;12.30;99.90
20915;DHT22;10617;52.032;5.298;2023-04-29T07:09:56;12.60;99.90
20915;DHT22;10617;52.032;5.298;2023-04-29T07:13:58;12.70;99.90
20915;DHT22;10617;52.032;5.298;2023-04-29T07:17:59;12.80;99.90
20915;DHT22;10617;52.032;5.298;2023-04-29T07:22:01;12.90;99.90
20915;DHT22;10617;52.032;5.298;2023-04-29T07:26:08;13.10;99.90
20915;DHT22;10617;52.032;5.298;2023-04-29T07:30:09;13.40;99.90
20915;DHT22;10617;52.032;5.298;2023-04-29T07:34:11;13.60;99.90
20915;DHT22;10617;52.032;5.298;2023-04-29T07:38:13;13.70;99.90
20915;DHT22;10617;52.032;5.298;2023-04-29T07:42:14;13.70;99.90
20915;DHT22;10617;52.032;5.298;2023-04-29T07:46:16;13.60;99.90
20915;DHT22;10617;52.032;5.298;2023-04-29T07:50:18;13.50;99.90
20915;DHT22;10617;52.032;5.298;2023-04-29T07:54:20;13.40;99.90
20915;DHT22;10617;52.032;5.298;2023-04-29T07:58:24;13.30;99.90
20915;DHT22;10617;52.032;5.298;2023-04-29T08:02:25;13.30;99.90
20915;DHT22;10617;52.032;5.298;2023-04-29T08:06:27;13.30;99.90
20915;DHT22;10617;52.032;5.298;2023-04-29T08:10:29;13.50;99.90
20915;DHT22;10617;52.032;5.298;2023-04-29T08:14:31;13.50;99.90
20915;DHT22;10617;52.032;5.298;2023-04-29T08:18:33;13.50;99.90
20915;DHT22;10617;52.032;5.298;2023-04-29T08:22:34;13.40;99.90
20915;DHT22;10617;52.032;5.298;2023-04-29T08:26:38;13.40;99.90
20915;DHT22;10617;52.032;5.298;2023-04-29T08:30:40;13.40;99.90
20915;DHT22;10617;52.032;5.298;2023-04-29T08:34:42;13.40;99.90
20915;DHT22;10617;52.032;5.298;2023-04-29T08:38:44;13.50;99.90
20915;DHT22;10617;52.032;5.298;2023-04-29T08:42:46;14.00;99.90
20915;DHT22;10617;52.032;5.298;2023-04-29T08:46:49;14.20;99.90
20915;DHT22;10617;52.032;5.298;2023-04-29T08:50:51;14.30;99.90
20915;DHT22;10617;52.032;5.298;2023-04-29T08:54:53;14.20;99.90
20915;DHT22;10617;52.032;5.298;2023-04-29T08:58:55;14.40;99.90
20915;DHT22;10617;52.032;5.298;2023-04-29T09:02:59;14.70;99.90
20915;DHT22;10617;52.032;5.298;2023-04-29T09:07:01;15.00;99.90
20915;DHT22;10617;52.032;5.298;2023-04-29T09:11:07;15.00;99.90
20915;DHT22;10617;52.032;5.298;2023-04-29T09:15:09;14.90;99.90
20915;DHT22;10617;52.032;5.298;2023-04-29T09:19:12;14.70;99.90
20915;DHT22;10617;52.032;5.298;2023-04-29T09:23:38;14.50;99.90
20915;DHT22;10617;52.032;5.298;2023-04-29T09:27:39;14.50;99.90
20915;DHT22;10617;52.032;5.298;2023-04-29T09:31:41;14.50;99.90
20915;DHT22;10617;52.032;5.298;2023-04-29T09:35:43;14.60;99.90
20915;DHT22;10617;52.032;5.298;2023-04-29T09:39:45;14.80;99.90
20915;DHT22;10617;52.032;5.298;2023-04-29T09:43:53;14.90;99.90
20915;DHT22;10617;52.032;5.298;2023-04-29T09:48:04;15.00;99.90
20915;DHT22;10617;52.032;5.298;2023-04-29T09:52:11;15.40;99.90
20915;DHT22;10617;52.032;5.298;2023-04-29T09:56:12;15.90;99.90
20915;DHT22;10617;52.032;5.298;2023-04-29T10:00:14;16.20;99.90
20915;DHT22;10617;52.032;5.298;2023-04-29T10:04:17;16.10;99.90
20915;DHT22;10617;52.032;5.298;2023-04-29T10:08:19;16.30;99.90
20915;DHT22;10617;52.032;5.298;2023-04-29T10:12:21;16.80;99.90
20915;DHT22;10617;52.032;5.298;2023-04-29T10:20:26;16.50;99.90
20915;DHT22;10617;52.032;5.298;2023-04-29T10:24:29;16.30;99.90
20915;DHT22;10617;52.032;5.298;2023-04-29T10:28:32;16.50;99.90
20915;DHT22;10617;52.032;5.298;2023-04-29T10:32:34;16.80;99.90
20915;DHT22;10617;52.032;5.298;2023-04-29T10:36:50;17.50;99.90
20915;DHT22;10617;52.032;5.298;2023-04-29T10:40:52;18.10;99.90
20915;DHT22;10617;52.032;5.298;2023-04-29T10:49:14;18.20;99.90
20915;DHT22;10617;52.032;5.298;2023-04-29T10:53:17;17.90;99.90
20915;DHT22;10617;52.032;5.298;2023-04-29T10:57:22;17.90;99.90
20915;DHT22;10617;52.032;5.298;2023-04-29T11:01:39;18.30;99.90
20915;DHT22;10617;52.032;5.298;2023-04-29T11:05:41;19.00;99.90
20915;DHT22;10617;52.032;5.298;2023-04-29T11:09:43;19.70;99.90
20915;DHT22;10617;52.032;5.298;2023-04-29T11:13:44;20.10;99.90
20915;DHT22;10617;52.032;5.298;2023-04-29T11:17:47;20.00;99.90
20915;DHT22;10617;52.032;5.298;2023-04-29T11:21:52;20.20;99.90
20915;DHT22;10617;52.032;5.298;2023-04-29T11:26:03;20.60;99.90
20915;DHT22;10617;52.032;5.298;2023-04-29T11:30:05;21.20;99.90
20915;DHT22;10617;52.032;5.298;2023-04-29T11:34:08;21.20;99.90
20915;DHT22;10617;52.032;5.298;2023-04-29T11:38:09;20.40;99.90
20915;DHT22;10617;52.032;5.298;2023-04-29T11:42:12;20.10;99.90
20915;DHT22;10617;52.032;5.298;2023-04-29T11:46:14;20.00;99.90
20915;DHT22;10617;52.032;5.298;2023-04-29T11:50:16;19.70;99.90
20915;DHT22;10617;52.032;5.298;2023-04-29T11:54:21;19.60;99.90
20915;DHT22;10617;52.032;5.298;2023-04-29T11:58:22;20.10;99.90
20915;DHT22;10617;52.032;5.298;2023-04-29T12:02:28;21.00;99.90
20915;DHT22;10617;52.032;5.298;2023-04-29T12:06:30;21.70;99.90
20915;DHT22;10617;52.032;5.298;2023-04-29T12:10:34;22.00;99.90
20915;DHT22;10617;52.032;5.298;2023-04-29T12:14:36;22.00;99.90
20915;DHT22;10617;52.032;5.298;2023-04-29T12:18:38;21.60;99.90
20915;DHT22;10617;52.032;5.298;2023-04-29T12:22:40;21.40;99.90
20915;DHT22;10617;52.032;5.298;2023-04-29T12:26:44;21.40;99.90
20915;DHT22;10617;52.032;5.298;2023-04-29T12:30:46;21.30;99.90
20915;DHT22;10617;52.032;5.298;2023-04-29T12:34:49;21.10;99.90
20915;DHT22;10617;52.032;5.298;2023-04-29T12:38:50;20.90;99.90
20915;DHT22;10617;52.032;5.298;2023-04-29T12:42:54;20.90;99.90
20915;DHT22;10617;52.032;5.298;2023-04-29T12:46:56;20.90;99.90
20915;DHT22;10617;52.032;5.298;2023-04-29T12:51:07;20.60;99.90
20915;DHT22;10617;52.032;5.298;2023-04-29T12:55:10;20.60;99.90
20915;DHT22;10617;52.032;5.298;2023-04-29T12:59:11;20.90;99.90
20915;DHT22;10617;52.032;5.298;2023-04-29T13:03:13;21.40;99.90
20915;DHT22;10617;52.032;5.298;2023-04-29T13:07:15;21.50;99.90
20915;DHT22;10617;52.032;5.298;2023-04-29T13:11:17;21.50;99.90
20915;DHT22;10617;52.032;5.298;2023-04-29T13:15:20;21.60;99.90
20915;DHT22;10617;52.032;5.298;2023-04-29T13:19:22;21.50;99.90
20915;DHT22;10617;52.032;5.298;2023-04-29T13:23:26;21.20;99.90
20915;DHT22;10617;52.032;5.298;2023-04-29T13:27:28;20.80;99.90
20915;DHT22;10617;52.032;5.298;2023-04-29T13:31:29;20.60;99.90
20915;DHT22;10617;52.032;5.298;2023-04-29T13:35:31;20.70;99.90
20915;DHT22;10617;52.032;5.298;2023-04-29T13:39:36;20.90;99.90
20915;DHT22;10617;52.032;5.298;2023-04-29T13:43:38;21.10;99.90
20915;DHT22;10617;52.032;5.298;2023-04-29T13:47:41;21.40;99.90
20915;DHT22;10617;52.032;5.298;2023-04-29T13:52:02;21.90;99.90
20915;DHT22;10617;52.032;5.298;2023-04-29T13:56:24;22.00;99.90
20915;DHT22;10617;52.032;5.298;2023-04-29T14:00:48;22.00;99.90
20915;DHT22;10617;52.032;5.298;2023-04-29T14:04:53;22.80;99.90
20915;DHT22;10617;52.032;5.298;2023-04-29T14:08:55;23.80;99.90
20915;DHT22;10617;52.032;5.298;2023-04-29T14:12:57;25.00;99.90
20915;DHT22;10617;52.032;5.298;2023-04-29T14:16:58;25.90;99.90
20915;DHT22;10617;52.032;5.298;2023-04-29T14:21:01;26.50;99.90
20915;DHT22;10617;52.032;5.298;2023-04-29T14:25:03;26.80;99.90
20915;DHT22;10617;52.032;5.298;2023-04-29T14:29:05;27.20;99.90
20915;DHT22;10617;52.032;5.298;2023-04-29T14:33:07;27.10;99.90
20915;DHT22;10617;52.032;5.298;2023-04-29T14:37:09;26.40;99.90
20915;DHT22;10617;52.032;5.298;2023-04-29T14:41:10;26.40;99.90
20915;DHT22;10617;52.032;5.298;2023-04-29T14:45:12;26.70;99.90
20915;DHT22;10617;52.032;5.298;2023-04-29T14:49:14;26.70;99.90
20915;DHT22;10617;52.032;5.298;2023-04-29T14:53:15;26.90;99.90
20915;DHT22;10617;52.032;5.298;2023-04-29T14:57:17;27.30;99.90
20915;DHT22;10617;52.032;5.298;2023-04-29T15:01:19;27.60;99.90
20915;DHT22;10617;52.032;5.298;2023-04-29T15:05:21;27.90;99.90
20915;DHT22;10617;52.032;5.298;2023-04-29T15:09:22;28.20;99.90
20915;DHT22;10617;52.032;5.298;2023-04-29T15:13:25;28.60;99.90
20915;DHT22;10617;52.032;5.298;2023-04-29T15:17:26;29.10;99.90
20915;DHT22;10617;52.032;5.298;2023-04-29T15:21:29;29.50;99.90
20915;DHT22;10617;52.032;5.298;2023-04-29T15:25:31;29.70;99.90
20915;DHT22;10617;52.032;5.298;2023-04-29T15:29:36;29.80;99.90
20915;DHT22;10617;52.032;5.298;2023-04-29T15:33:38;29.70;99.90
20915;DHT22;10617;52.032;5.298;2023-04-29T15:37:40;29.70;99.90
20915;DHT22;10617;52.032;5.298;2023-04-29T15:41:42;29.50;99.90
20915;DHT22;10617;52.032;5.298;2023-04-29T15:45:43;29.20;99.90
20915;DHT22;10617;52.032;5.298;2023-04-29T15:49:45;29.30;99.90
20915;DHT22;10617;52.032;5.298;2023-04-29T15:53:47;29.80;99.90
20915;DHT22;10617;52.032;5.298;2023-04-29T15:57:49;30.20;99.90
20915;DHT22;10617;52.032;5.298;2023-04-29T16:01:51;30.50;99.90
20915;DHT22;10617;52.032;5.298;2023-04-29T16:05:53;30.60;99.90
20915;DHT22;10617;52.032;5.298;2023-04-29T16:09:55;30.80;99.90
20915;DHT22;10617;52.032;5.298;2023-04-29T16:13:56;31.10;99.90
20915;DHT22;10617;52.032;5.298;2023-04-29T16:17:58;31.40;99.90
20915;DHT22;10617;52.032;5.298;2023-04-29T16:22:01;31.50;99.90
20915;DHT22;10617;52.032;5.298;2023-04-29T16:26:03;31.60;99.90
20915;DHT22;10617;52.032;5.298;2023-04-29T16:30:04;31.70;99.90
20915;DHT22;10617;52.032;5.298;2023-04-29T16:34:06;31.50;99.90
20915;DHT22;10617;52.032;5.298;2023-04-29T16:38:08;31.30;99.90
20915;DHT22;10617;52.032;5.298;2023-04-29T16:42:09;31.20;99.90
20915;DHT22;10617;52.032;5.298;2023-04-29T16:46:11;31.20;99.90
20915;DHT22;10617;52.032;5.298;2023-04-29T16:50:13;31.20;99.90
20915;DHT22;10617;52.032;5.298;2023-04-29T16:54:15;31.30;99.90
20915;DHT22;10617;52.032;5.298;2023-04-29T16:58:16;31.20;99.90
20915;DHT22;10617;52.032;5.298;2023-04-29T17:02:18;30.90;99.90
20915;DHT22;10617;52.032;5.298;2023-04-29T17:06:20;30.70;99.90
20915;DHT22;10617;52.032;5.298;2023-04-29T17:10:22;30.50;99.90
20915;DHT22;10617;52.032;5.298;2023-04-29T17:14:23;30.50;99.90
20915;DHT22;10617;52.032;5.298;2023-04-29T17:18:25;30.40;99.90
20915;DHT22;10617;52.032;5.298;2023-04-29T17:22:27;30.30;99.90
20915;DHT22;10617;52.032;5.298;2023-04-29T17:26:28;30.00;99.90
20915;DHT22;10617;52.032;5.298;2023-04-29T17:30:31;29.80;99.90
20915;DHT22;10617;52.032;5.298;2023-04-29T17:34:36;29.40;95.90
20915;DHT22;10617;52.032;5.298;2023-04-29T17:38:38;29.10;94.10
20915;DHT22;10617;52.032;5.298;2023-04-29T17:42:40;28.60;97.90
20915;DHT22;10617;52.032;5.298;2023-04-29T17:46:42;28.30;99.40
20915;DHT22;10617;52.032;5.298;2023-04-29T17:50:44;28.00;98.20
20915;DHT22;10617;52.032;5.298;2023-04-29T17:54:46;27.80;95.90
20915;DHT22;10617;52.032;5.298;2023-04-29T17:58:49;27.20;91.00
20915;DHT22;10617;52.032;5.298;2023-04-29T18:02:50;26.50;93.00
20915;DHT22;10617;52.032;5.298;2023-04-29T18:06:52;25.40;90.40
20915;DHT22;10617;52.032;5.298;2023-04-29T18:10:53;24.30;90.00
20915;DHT22;10617;52.032;5.298;2023-04-29T18:14:55;23.40;88.00
20915;DHT22;10617;52.032;5.298;2023-04-29T18:18:57;22.70;86.50
20915;DHT22;10617;52.032;5.298;2023-04-29T18:22:59;22.20;90.30
20915;DHT22;10617;52.032;5.298;2023-04-29T18:27:01;21.80;82.30
20915;DHT22;10617;52.032;5.298;2023-04-29T18:31:02;21.30;77.90
20915;DHT22;10617;52.032;5.298;2023-04-29T18:35:04;20.80;81.90
20915;DHT22;10617;52.032;5.298;2023-04-29T18:39:06;20.50;82.70
20915;DHT22;10617;52.032;5.298;2023-04-29T18:43:07;20.20;83.90
20915;DHT22;10617;52.032;5.298;2023-04-29T18:47:10;19.90;84.30
20915;DHT22;10617;52.032;5.298;2023-04-29T18:51:11;19.70;83.70
20915;DHT22;10617;52.032;5.298;2023-04-29T18:55:13;19.30;82.00
20915;DHT22;10617;52.032;5.298;2023-04-29T18:59:14;19.10;83.60
20915;DHT22;10617;52.032;5.298;2023-04-29T19:03:20;18.90;82.40
20915;DHT22;10617;52.032;5.298;2023-04-29T19:07:21;18.70;81.70
20915;DHT22;10617;52.032;5.298;2023-04-29T19:11:23;18.50;81.90
20915;DHT22;10617;52.032;5.298;2023-04-29T19:15:26;18.30;81.00
20915;DHT22;10617;52.032;5.298;2023-04-29T19:19:28;18.20;82.40
20915;DHT22;10617;52.032;5.298;2023-04-29T19:23:31;18.10;80.70
20915;DHT22;10617;52.032;5.298;2023-04-29T19:27:32;17.90;81.10
20915;DHT22;10617;52.032;5.298;2023-04-29T19:31:34;17.80;80.70
20915;DHT22;10617;52.032;5.298;2023-04-29T19:35:35;17.60;80.80
20915;DHT22;10617;52.032;5.298;2023-04-29T19:39:37;17.50;80.40
20915;DHT22;10617;52.032;5.298;2023-04-29T19:43:39;17.30;81.20
20915;DHT22;10617;52.032;5.298;2023-04-29T19:47:40;17.10;80.30
20915;DHT22;10617;52.032;5.298;2023-04-29T19:51:42;16.90;80.30
20915;DHT22;10617;52.032;5.298;2023-04-29T20:00:41;16.50;80.90
20915;DHT22;10617;52.032;5.298;2023-04-29T20:15:04;16.00;81.00
20915;DHT22;10617;52.032;5.298;2023-04-29T20:19:06;15.90;81.50
20915;DHT22;10617;52.032;5.298;2023-04-29T20:23:08;15.90;81.80
20915;DHT22;10617;52.032;5.298;2023-04-29T20:27:09;15.70;82.10
20915;DHT22;10617;52.032;5.298;2023-04-29T20:31:11;15.70;82.30
20915;DHT22;10617;52.032;5.298;2023-04-29T20:35:31;15.60;82.30
20915;DHT22;10617;52.032;5.298;2023-04-29T20:39:33;15.50;82.50
20915;DHT22;10617;52.032;5.298;2023-04-29T20:43:35;15.40;82.60
20915;DHT22;10617;52.032;5.298;2023-04-29T20:47:36;15.40;82.00
20915;DHT22;10617;52.032;5.298;2023-04-29T20:51:38;15.40;82.30
20915;DHT22;10617;52.032;5.298;2023-04-29T20:55:40;15.30;82.10
20915;DHT22;10617;52.032;5.298;2023-04-29T21:14:52;15.10;82.00
20915;DHT22;10617;52.032;5.298;2023-04-29T21:18:54;14.90;81.50
20915;DHT22;10617;52.032;5.298;2023-04-29T21:22:56;14.80;82.20
20915;DHT22;10617;52.032;5.298;2023-04-29T21:26:57;14.70;81.60
20915;DHT22;10617;52.032;5.298;2023-04-29T21:30:59;14.50;81.60
20915;DHT22;10617;52.032;5.298;2023-04-29T21:35:01;14.40;81.00
20915;DHT22;10617;52.032;5.298;2023-04-29T21:39:02;14.30;80.80
20915;DHT22;10617;52.032;5.298;2023-04-29T21:43:04;14.20;80.90
20915;DHT22;10617;52.032;5.298;2023-04-29T21:47:06;14.00;81.40
20915;DHT22;10617;52.032;5.298;2023-04-29T21:51:08;13.90;81.30
20915;DHT22;10617;52.032;5.298;2023-04-29T22:10:41;13.00;81.40
20915;DHT22;10617;52.032;5.298;2023-04-29T22:14:43;12.80;83.30
20915;DHT22;10617;52.032;5.298;2023-04-29T22:18:45;12.70;82.50
20915;DHT22;10617;52.032;5.298;2023-04-29T22:22:47;12.60;82.10
20915;DHT22;10617;52.032;5.298;2023-04-29T22:26:48;12.60;82.30
20915;DHT22;10617;52.032;5.298;2023-04-29T22:51:03;12.00;80.90
20915;DHT22;10617;52.032;5.298;2023-04-29T23:05:12;11.80;80.70
20915;DHT22;10617;52.032;5.298;2023-04-29T23:09:13;11.70;80.40
20915;DHT22;10617;52.032;5.298;2023-04-29T23:13:15;11.60;80.90
20915;DHT22;10617;52.032;5.298;2023-04-29T23:17:17;11.50;81.20
20915;DHT22;10617;52.032;5.298;2023-04-29T23:21:18;11.40;81.30
20915;DHT22;10617;52.032;5.298;2023-04-29T23:25:20;11.30;80.80
20915;DHT22;10617;52.032;5.298;2023-04-29T23:29:22;11.30;81.10
20915;DHT22;10617;52.032;5.298;2023-04-29T23:33:24;11.20;80.40
20915;DHT22;10617;52.032;5.298;2023-04-29T23:37:25;11.10;80.60
20915;DHT22;10617;52.032;5.298;2023-04-29T23:41:27;11.00;80.50
20915;DHT22;10617;52.032;5.298;2023-04-29T23:50:31;10.90;81.00
20915;DHT22;10617;52.032;5.298;2023-04-29T23:54:33;10.80;80.40
20915;DHT22;10617;52.032;5.298;2023-04-29T23:58:34;10.80;80.00
